KCCA/CCA METAR and TAF weather

Enter ICAO airport designator
Station Type Date Time Source
KCCA METAR 2020/07/04 08:15 UTC NOAA

KCCA 040815Z AUTO 00000KT 4SM BR SCT043 SCT050 20/20 A2994 RMK AO2


Station Type Date Time Source
KCCA Decoded METAR 2020/07/04 08:15 UTC NOAA

Station name not available
Jul 04, 2020 - 04:15 AM EDT / 2020.07.04 0815 UTC
Wind: Calm:0
Visibility: 4 mile(s):0
Sky conditions: partly cloudy
Weather: mist
Temperature: 68 F (20 C)
Dew Point: 68 F (20 C)
Relative Humidity: 100%
Pressure (altimeter): 29.94 in. Hg (1013 hPa)
ob: KCCA 040815Z AUTO 00000KT 4SM BR SCT043 SCT050 20/20 A2994 RMK AO2
cycle: 8

Station Type Date Time Source
KCCA TAF UTC NOAA

Error!

Example: see airport list